Terminal Aerodrome Forecast
Issued by NWS Northern Indiana

Home | Current Version | Previous Version | Text Only | Print | Product List | Glossary Off
Versions: 1 2 3 4 5 6 7 8 9 10 11 12 13

000
FTUS43 KIWX 030520
TAFFWA
TAF
KFWA 030520Z 0306/0406 08004KT P6SM SCT040 BKN250 WS009/09026KT
     FM031400 06009KT P6SM BKN035
     FM031900 04006KT P6SM SCT045=

USA.gov is the U.S. government's official web portal to all federal, state and local government web resources and services.